windsock image

Welcome to Bigfield Strip.

anemometer image

 Help for dials.  
Local Met:

10 Min average:  
264 ° / 0.0 kts (0.0)
257° / 0.2

10.3°C C
Dew Point:  
9.5°C C
1025.6 mb mb
BigField Strip. This image updates approximately every minute, it can have a two minute delay.  

95 %
Sunrise:   06:48z
Sunset:   16:46z
   More met info, trends, radar, history etc. available here   

LUTON Metar   EGGW 260350Z AUTO 19004KT 140V230 0100 R26/0325 FG VV/// 10/10 Q1025
  TAF   2016/10/26 01:30 TAF AMD TAF AMD EGGW 260129Z 2601/2624 16005KT 5000 BR SCT020 TEMPO 2601/2611 2000 BKN004 PROB40 TEMPO 2601/2609 0300 FG BKN001 BECMG 2610/2612 9999 NSW TEMPO 2620/2623 7000 PROB30 TEMPO 2622/2624 4000 BR BKN003
BENSON Metar   EGUB 260350Z 20005KT 0800 FG OVC001 11/11 Q1026 RED
  TAF   2016/10/25 18:33 TAF TAF AMD EGUB 251824Z 2518/2522 VRB03KT 3000 BR SCT030 PROB40 2519/2522 0500 FG BKN001
Big Field view 1 icon   Big Field view 2 icon   Big Field view 3 icon   Chart AL3a in PDF icon   Chart AL3a in Word icon

This information is provided by the Airstrip unofficial weather station, DO NOT depend on the data provided here for any purpose.
This page is updated for latest Metars & TAF's every 5 minutes. Refresh the browser to check for the lastest.
Page designed for a minimum browser size of 1024x768.
© Copyright 2016 BigField Strip. This page auto generated 04:01 UTC - 26/10/2016   Contact Us
Valid HTML 4.01 Transitional     Windows uptime: 2 Days 1 Hours 29 Minutes 26 Seconds    WD started: 02:37 24/10/16    Free memory: 1537MB     Valid CSS!